createdAt,value
2018-06-03T00:00:23.670Z,90.51
2018-06-03T00:01:29.030Z,90.52
2018-06-03T00:02:34.673Z,90.56
2018-06-03T00:03:42.219Z,90.65
2018-06-03T00:04:47.368Z,90.66
2018-06-03T00:05:51.878Z,90.67
2018-06-03T00:06:56.358Z,90.61
2018-06-03T00:08:00.878Z,90.62
2018-06-03T00:09:06.424Z,90.55
2018-06-03T00:10:11.320Z,90.57
2018-06-03T00:11:15.802Z,90.61
2018-06-03T00:12:20.382Z,90.54
2018-06-03T00:13:25.137Z,90.52
2018-06-03T00:14:29.731Z,90.52
2018-06-03T00:15:34.302Z,90.49
2018-06-03T00:16:39.313Z,90.38
2018-06-03T00:17:43.946Z,90.39
2018-06-03T00:18:48.469Z,90.40
2018-06-03T00:19:52.951Z,90.40
2018-06-03T00:21:02.850Z,90.40
2018-06-03T00:22:08.827Z,90.32
2018-06-03T00:23:13.806Z,90.32
2018-06-03T00:24:18.568Z,90.38
2018-06-03T00:25:23.497Z,90.38
2018-06-03T00:26:27.975Z,90.37
2018-06-03T00:27:32.674Z,90.51
2018-06-03T00:28:37.330Z,90.55
2018-06-03T00:29:42.137Z,90.58
2018-06-03T00:30:46.646Z,90.55
2018-06-03T00:31:51.136Z,90.59
2018-06-03T00:32:55.642Z,90.59
2018-06-03T00:34:00.150Z,90.56
2018-06-03T00:35:04.697Z,90.51
2018-06-03T00:36:14.956Z,90.57
2018-06-03T00:37:19.488Z,90.65
2018-06-03T00:38:23.989Z,90.66
2018-06-03T00:39:28.529Z,90.62
2018-06-03T00:40:33.033Z,90.56
2018-06-03T00:41:37.495Z,90.59
2018-06-03T00:42:42.519Z,90.65
2018-06-03T00:43:47.208Z,90.68
2018-06-03T00:44:51.842Z,90.62
2018-06-03T00:45:56.482Z,90.63
2018-06-03T00:47:01.127Z,90.63
2018-06-03T00:48:05.739Z,90.65
2018-06-03T00:49:10.823Z,90.67
2018-06-03T00:50:16.162Z,90.59
2018-06-03T00:51:20.809Z,90.64
2018-06-03T00:52:25.451Z,90.64
2018-06-03T00:53:30.080Z,90.71
2018-06-03T00:54:34.711Z,90.75
2018-06-03T00:55:39.737Z,90.82
2018-06-03T00:57:18.700Z,90.93
2018-06-03T00:58:23.321Z,90.99
2018-06-03T00:59:28.056Z,91.01
2018-06-03T01:00:33.410Z,91.02
2018-06-03T01:01:38.082Z,91.00
2018-06-03T01:02:43.115Z,90.96
2018-06-03T01:03:47.729Z,91.00
2018-06-03T01:04:52.338Z,91.02
2018-06-03T01:05:57.016Z,91.05
2018-06-03T01:07:01.667Z,91.04
2018-06-03T01:08:06.333Z,91.03
2018-06-03T01:09:11.716Z,90.99
2018-06-03T01:10:16.469Z,91.03
2018-06-03T01:11:21.105Z,91.05
2018-06-03T01:12:25.711Z,91.07
2018-06-03T01:13:30.336Z,90.97
2018-06-03T01:14:35.053Z,90.87
2018-06-03T01:15:40.167Z,90.99
2018-06-03T01:16:44.894Z,91.10
2018-06-03T01:17:49.509Z,91.15
2018-06-03T01:18:54.198Z,91.12
2018-06-03T01:19:58.849Z,91.06
2018-06-03T01:21:03.504Z,91.06
2018-06-03T01:22:08.902Z,91.05
2018-06-03T01:23:13.683Z,91.01
2018-06-03T01:24:18.366Z,91.00
2018-06-03T01:25:24.047Z,91.05
2018-06-03T01:26:28.697Z,91.09
2018-06-03T01:27:33.386Z,91.08
2018-06-03T01:28:38.419Z,91.06
2018-06-03T01:29:43.047Z,91.04
2018-06-03T01:30:47.717Z,91.05
2018-06-03T01:31:52.296Z,90.91
2018-06-03T01:32:56.930Z,90.84
2018-06-03T01:34:01.530Z,90.95
2018-06-03T01:35:06.567Z,91.07
2018-06-03T01:36:11.239Z,91.08
2018-06-03T01:37:15.836Z,91.11
2018-06-03T01:38:20.435Z,91.15
2018-06-03T01:39:24.978Z,91.10
2018-06-03T01:40:29.530Z,91.11
2018-06-03T01:41:34.435Z,91.08
2018-06-03T01:42:38.963Z,91.17
2018-06-03T01:43:43.619Z,91.19
2018-06-03T01:44:48.311Z,91.17
2018-06-03T01:45:52.976Z,91.12
2018-06-03T01:46:57.686Z,91.20
2018-06-03T01:48:02.955Z,91.21
2018-06-03T01:49:07.643Z,91.28
2018-06-03T01:50:12.292Z,91.27
2018-06-03T01:51:16.986Z,91.27
2018-06-03T01:52:21.700Z,91.28
2018-06-03T01:53:26.363Z,91.24
2018-06-03T01:54:31.393Z,91.24
2018-06-03T01:55:36.047Z,91.21
2018-06-03T01:56:40.727Z,91.17
2018-06-03T01:57:45.382Z,91.15
2018-06-03T01:58:50.150Z,91.18
2018-06-03T01:59:54.842Z,91.08
2018-06-03T02:00:59.896Z,91.09
2018-06-03T02:02:04.587Z,91.09
2018-06-03T02:03:09.284Z,91.05
2018-06-03T02:04:13.965Z,91.10
2018-06-03T02:05:18.647Z,91.22
2018-06-03T02:06:23.376Z,91.27
2018-06-03T02:07:28.602Z,91.35
2018-06-03T02:08:33.281Z,91.44
2018-06-03T02:09:37.988Z,91.47
2018-06-03T02:10:42.717Z,91.53
2018-06-03T02:11:47.534Z,91.62
2018-06-03T02:12:52.899Z,91.67
2018-06-03T02:13:57.823Z,91.66
2018-06-03T02:15:02.377Z,91.61
2018-06-03T02:16:06.988Z,91.57
2018-06-03T02:17:11.525Z,91.50
2018-06-03T02:18:16.065Z,91.46
2018-06-03T02:19:20.631Z,91.38
2018-06-03T02:20:25.712Z,91.44
2018-06-03T02:21:30.261Z,91.48
2018-06-03T02:22:34.796Z,91.46
2018-06-03T02:23:39.399Z,91.56
2018-06-03T02:24:44.004Z,91.58
2018-06-03T02:25:48.536Z,91.56
2018-06-03T02:26:53.652Z,91.57
2018-06-03T02:27:58.227Z,91.56
2018-06-03T02:29:02.783Z,91.56
2018-06-03T02:30:07.346Z,91.52
2018-06-03T02:31:11.956Z,91.42
2018-06-03T02:32:16.563Z,91.48
2018-06-03T02:33:21.518Z,91.55
2018-06-03T02:34:26.059Z,91.52
2018-06-03T02:35:30.695Z,91.51
2018-06-03T02:36:35.262Z,91.54
2018-06-03T02:37:39.845Z,91.57
2018-06-03T02:38:44.421Z,91.58
2018-06-03T02:39:49.345Z,91.55
2018-06-03T02:40:53.928Z,91.52
2018-06-03T02:41:58.507Z,91.54
2018-06-03T02:43:03.088Z,91.59
2018-06-03T02:44:07.627Z,91.60
2018-06-03T02:45:12.285Z,91.59
2018-06-03T02:46:17.179Z,91.55
2018-06-03T02:47:21.707Z,91.46
2018-06-03T02:48:26.351Z,91.43
2018-06-03T02:49:30.913Z,91.52
2018-06-03T02:50:35.528Z,91.52
2018-06-03T02:51:40.067Z,91.45
2018-06-03T02:52:45.117Z,91.37
2018-06-03T02:53:49.672Z,91.33
2018-06-03T02:54:54.329Z,91.34
2018-06-03T02:55:58.859Z,91.36
2018-06-03T02:57:03.454Z,91.32
2018-06-03T02:58:07.996Z,91.26
2018-06-03T02:59:12.928Z,91.25
2018-06-03T03:00:17.463Z,91.31
2018-06-03T03:01:22.032Z,91.33
2018-06-03T03:02:26.675Z,91.38
2018-06-03T03:03:31.269Z,91.41
2018-06-03T03:04:35.828Z,91.42
2018-06-03T03:05:40.816Z,91.42
2018-06-03T03:06:45.382Z,91.44
2018-06-03T03:07:50.772Z,91.44
2018-06-03T03:08:55.359Z,91.47
2018-06-03T03:09:59.926Z,91.54
2018-06-03T03:11:04.543Z,91.54
2018-06-03T03:12:09.538Z,91.52
2018-06-03T03:13:14.091Z,91.50
2018-06-03T03:14:18.603Z,91.45
2018-06-03T03:15:23.178Z,91.47
2018-06-03T03:16:27.720Z,91.47
2018-06-03T03:17:32.293Z,91.50
2018-06-03T03:18:37.174Z,91.51
2018-06-03T03:19:41.745Z,91.48
2018-06-03T03:20:47.006Z,91.46
2018-06-03T03:21:51.542Z,91.51
2018-06-03T03:22:56.103Z,91.53
2018-06-03T03:24:00.636Z,91.51
2018-06-03T03:25:05.736Z,91.49
2018-06-03T03:26:10.321Z,91.48
2018-06-03T03:27:14.865Z,91.47
2018-06-03T03:28:19.468Z,91.46
2018-06-03T03:29:24.046Z,91.47
2018-06-03T03:30:28.628Z,91.45
2018-06-03T03:31:33.594Z,91.57
2018-06-03T03:32:38.225Z,91.76
2018-06-03T03:33:42.754Z,91.88
2018-06-03T03:34:47.282Z,92.04
2018-06-03T03:35:51.876Z,92.15
2018-06-03T03:36:56.447Z,92.15
2018-06-03T03:38:01.502Z,92.16
2018-06-03T03:39:06.802Z,92.14
2018-06-03T03:40:11.349Z,92.12
2018-06-03T03:41:15.945Z,92.07
2018-06-03T03:42:20.650Z,91.96
2018-06-03T03:43:25.267Z,91.85
2018-06-03T03:44:30.170Z,91.81
2018-06-03T03:45:34.723Z,91.80
2018-06-03T03:46:39.236Z,91.77
2018-06-03T03:47:43.805Z,91.77
2018-06-03T03:48:48.403Z,91.74
2018-06-03T03:49:52.973Z,91.52
2018-06-03T03:50:58.045Z,91.57
2018-06-03T03:52:02.639Z,91.68
2018-06-03T03:53:07.185Z,91.75
2018-06-03T03:54:11.742Z,91.80
2018-06-03T03:55:16.286Z,91.79
2018-06-03T03:56:20.841Z,91.75
2018-06-03T03:57:25.751Z,91.67
2018-06-03T03:58:30.328Z,91.42
2018-06-03T03:59:34.929Z,91.54
2018-06-03T04:00:39.478Z,91.69
2018-06-03T04:01:44.014Z,91.75
2018-06-03T04:02:48.615Z,91.77
2018-06-03T04:03:53.618Z,91.73
2018-06-03T04:04:58.179Z,91.71
2018-06-03T04:06:02.719Z,91.68
2018-06-03T04:07:07.317Z,91.60
2018-06-03T04:08:11.864Z,91.58
2018-06-03T04:09:16.457Z,91.63
2018-06-03T04:10:21.344Z,91.58
2018-06-03T04:11:25.909Z,91.47
2018-06-03T04:12:30.457Z,91.54
2018-06-03T04:13:35.033Z,91.65
2018-06-03T04:14:40.437Z,91.62
2018-06-03T04:15:44.959Z,91.56
2018-06-03T04:16:50.091Z,91.51
2018-06-03T04:17:54.662Z,91.45
2018-06-03T04:18:59.205Z,91.50
2018-06-03T04:20:03.767Z,91.50
2018-06-03T04:21:08.282Z,91.43
2018-06-03T04:22:12.855Z,91.39
2018-06-03T04:23:17.948Z,91.33
2018-06-03T04:24:22.658Z,91.31
2018-06-03T04:25:27.395Z,91.10
2018-06-03T04:26:32.099Z,91.05
2018-06-03T04:27:36.823Z,91.21
2018-06-03T04:28:41.465Z,91.29
2018-06-03T04:29:46.730Z,91.42
2018-06-03T04:30:51.423Z,91.61
2018-06-03T04:31:56.108Z,91.70
2018-06-03T04:33:00.819Z,91.67
2018-06-03T04:34:05.512Z,91.65
2018-06-03T04:35:10.239Z,91.62
2018-06-03T04:36:15.139Z,91.56
2018-06-03T04:37:19.773Z,91.52
2018-06-03T04:38:24.377Z,91.45
2018-06-03T04:39:28.942Z,91.52
2018-06-03T04:40:33.582Z,91.64
2018-06-03T04:41:38.190Z,91.63
2018-06-03T04:42:43.957Z,91.62
2018-06-03T04:43:48.594Z,91.55
2018-06-03T04:44:53.255Z,91.43
2018-06-03T04:45:57.936Z,91.53
2018-06-03T04:47:02.530Z,91.59
2018-06-03T04:48:07.235Z,91.60
2018-06-03T04:49:12.150Z,91.70
2018-06-03T04:50:16.753Z,91.85
2018-06-03T04:51:21.300Z,91.98
2018-06-03T04:52:25.861Z,92.13
2018-06-03T04:53:30.414Z,92.14
2018-06-03T04:54:34.967Z,92.16
2018-06-03T04:55:39.851Z,92.22
2018-06-03T04:56:44.382Z,92.17
2018-06-03T04:57:48.906Z,92.08
2018-06-03T04:58:53.471Z,91.96
2018-06-03T04:59:58.043Z,92.00
2018-06-03T05:01:02.630Z,92.08
2018-06-03T05:02:07.573Z,92.08
2018-06-03T05:03:12.123Z,92.01
2018-06-03T05:04:16.667Z,92.03
2018-06-03T05:05:21.232Z,92.14
2018-06-03T05:06:25.816Z,92.22
2018-06-03T05:07:30.388Z,92.30
2018-06-03T05:08:35.395Z,92.39
2018-06-03T05:09:40.103Z,92.54
2018-06-03T05:10:45.307Z,92.74
2018-06-03T05:11:49.953Z,92.96
2018-06-03T05:12:54.581Z,93.16
2018-06-03T05:13:59.255Z,93.37
2018-06-03T05:15:04.219Z,93.54
2018-06-03T05:16:08.868Z,93.72
2018-06-03T05:17:13.560Z,93.89
2018-06-03T05:18:18.269Z,93.99
2018-06-03T05:19:22.969Z,94.07
2018-06-03T05:20:27.548Z,94.14
2018-06-03T05:21:32.649Z,94.19
2018-06-03T05:22:37.205Z,94.20
2018-06-03T05:23:41.938Z,94.11
2018-06-03T05:24:46.497Z,93.93
2018-06-03T05:25:51.063Z,93.70
2018-06-03T05:26:55.647Z,93.42
2018-06-03T05:28:01.354Z,93.22
2018-06-03T05:29:05.908Z,93.17
2018-06-03T05:30:10.442Z,93.15
2018-06-03T05:31:14.986Z,93.08
2018-06-03T05:32:19.584Z,93.05
2018-06-03T05:33:24.479Z,93.03
2018-06-03T05:34:29.459Z,92.91
2018-06-03T05:35:34.023Z,92.78
2018-06-03T05:36:38.590Z,92.75
2018-06-03T05:37:43.117Z,92.72
2018-06-03T05:38:47.713Z,92.57
2018-06-03T05:39:52.361Z,92.52
2018-06-03T05:40:57.350Z,92.53
2018-06-03T05:42:01.931Z,92.51
2018-06-03T05:43:06.658Z,92.38
2018-06-03T05:44:11.352Z,92.32
2018-06-03T05:45:16.021Z,92.18
2018-06-03T05:46:20.669Z,92.02
2018-06-03T05:47:25.772Z,91.86
2018-06-03T05:48:30.433Z,91.98
2018-06-03T05:49:35.163Z,92.05
2018-06-03T05:50:39.844Z,92.11
2018-06-03T05:51:44.489Z,92.36
2018-06-03T05:52:49.174Z,92.49
2018-06-03T05:53:54.248Z,92.51
2018-06-03T05:54:59.004Z,92.37
2018-06-03T05:56:03.747Z,92.43
2018-06-03T05:57:08.534Z,92.41
2018-06-03T05:58:13.239Z,92.17
2018-06-03T05:59:17.922Z,92.21
2018-06-03T06:00:22.961Z,92.36
2018-06-03T06:01:27.660Z,92.57
2018-06-03T06:02:32.410Z,92.76
2018-06-03T06:03:37.122Z,92.72
2018-06-03T06:04:41.841Z,92.78
2018-06-03T06:05:46.542Z,92.90
2018-06-03T06:06:51.669Z,93.08
2018-06-03T06:07:56.596Z,93.19
2018-06-03T06:09:01.363Z,93.25
2018-06-03T06:10:06.189Z,93.35
2018-06-03T06:11:10.855Z,93.45
2018-06-03T06:12:15.548Z,93.51
2018-06-03T06:13:20.647Z,93.56
2018-06-03T06:14:26.270Z,93.52
2018-06-03T06:15:30.832Z,93.51
2018-06-03T06:16:35.412Z,93.59
2018-06-03T06:17:40.713Z,93.59
2018-06-03T06:18:45.319Z,93.57
2018-06-03T06:19:50.276Z,93.38
2018-06-03T06:20:54.869Z,93.19
2018-06-03T06:21:59.410Z,92.99
2018-06-03T06:23:03.949Z,92.68
2018-06-03T06:24:08.484Z,92.49
2018-06-03T06:25:13.174Z,92.50
2018-06-03T06:26:18.089Z,92.53
2018-06-03T06:27:22.615Z,92.36
2018-06-03T06:28:27.220Z,92.21
2018-06-03T06:29:31.778Z,92.18
2018-06-03T06:30:36.993Z,92.00
2018-06-03T06:31:41.597Z,92.16
2018-06-03T06:32:46.675Z,92.14
2018-06-03T06:33:51.370Z,92.27
2018-06-03T06:34:56.110Z,92.23
2018-06-03T06:36:00.804Z,91.93
2018-06-03T06:37:05.496Z,91.77
2018-06-03T06:38:10.176Z,91.73
2018-06-03T06:39:15.753Z,91.69
2018-06-03T06:40:20.444Z,91.50
2018-06-03T06:41:24.997Z,91.48
2018-06-03T06:42:29.544Z,91.39
2018-06-03T06:43:34.251Z,91.37
2018-06-03T06:44:38.987Z,91.36
2018-06-03T06:45:44.209Z,91.07
2018-06-03T06:46:48.857Z,90.89
2018-06-03T06:47:53.539Z,90.79
2018-06-03T06:48:58.233Z,90.71
2018-06-03T06:50:03.042Z,90.76
2018-06-03T06:51:07.620Z,90.51
2018-06-03T06:52:12.514Z,90.14
2018-06-03T06:53:17.048Z,89.69
2018-06-03T06:54:21.650Z,89.53
2018-06-03T06:55:26.243Z,88.83
2018-06-03T06:56:30.831Z,88.91
2018-06-03T06:57:35.365Z,88.76
2018-06-03T06:58:40.397Z,88.87
2018-06-03T06:59:44.920Z,88.99
2018-06-03T07:00:49.498Z,88.61
2018-06-03T07:01:54.036Z,88.31
2018-06-03T07:02:58.587Z,87.97
2018-06-03T07:04:03.788Z,87.79
2018-06-03T07:05:08.709Z,87.80
2018-06-03T07:06:13.281Z,87.81
2018-06-03T07:07:18.486Z,87.89
2018-06-03T07:08:23.096Z,87.61
2018-06-03T07:09:27.673Z,87.63
2018-06-03T07:10:32.318Z,87.41
2018-06-03T07:11:37.236Z,87.01
2018-06-03T07:12:41.785Z,86.72
2018-06-03T07:13:46.365Z,86.63
2018-06-03T07:14:50.918Z,86.28
2018-06-03T07:15:55.439Z,85.77
2018-06-03T07:17:00.038Z,85.72
2018-06-03T07:18:05.251Z,85.13
2018-06-03T07:19:09.930Z,84.88
2018-06-03T07:20:14.627Z,85.17
2018-06-03T07:21:19.309Z,85.71
2018-06-03T07:22:24.028Z,85.51
2018-06-03T07:23:28.725Z,84.86
2018-06-03T07:24:33.500Z,84.62
2018-06-03T07:25:38.159Z,84.32
2018-06-03T07:26:43.011Z,84.19
2018-06-03T07:27:47.754Z,83.97
2018-06-03T07:28:52.319Z,83.84
2018-06-03T07:29:57.224Z,84.08
2018-06-03T07:31:01.759Z,84.33
2018-06-03T07:32:06.348Z,84.57
2018-06-03T07:33:10.911Z,84.74
2018-06-03T07:34:15.534Z,84.70
2018-06-03T07:35:20.125Z,84.50
2018-06-03T07:36:25.102Z,84.42
2018-06-03T07:37:29.675Z,84.37
2018-06-03T07:38:34.246Z,84.01
2018-06-03T07:39:38.844Z,83.31
2018-06-03T07:40:43.395Z,82.31
2018-06-03T07:41:48.074Z,82.02
2018-06-03T07:42:52.719Z,81.82
2018-06-03T07:43:57.350Z,81.57
2018-06-03T07:45:02.058Z,81.30
2018-06-03T07:46:06.806Z,81.40
2018-06-03T07:47:11.457Z,81.18
2018-06-03T07:48:16.513Z,81.45
2018-06-03T07:49:21.265Z,81.46
2018-06-03T07:50:26.016Z,81.37
2018-06-03T07:51:30.758Z,81.19
2018-06-03T07:52:35.557Z,81.30
2018-06-03T07:53:40.290Z,81.25
2018-06-03T07:54:46.328Z,81.34
2018-06-03T07:55:51.031Z,81.22
2018-06-03T07:56:55.741Z,80.93
2018-06-03T07:58:00.400Z,80.88
2018-06-03T07:59:05.096Z,80.77
2018-06-03T08:00:09.809Z,80.64
2018-06-03T08:01:14.899Z,80.53
2018-06-03T08:02:19.652Z,80.34
2018-06-03T08:03:24.333Z,79.78
2018-06-03T08:04:29.004Z,79.73
2018-06-03T08:05:33.681Z,79.53
2018-06-03T08:06:38.499Z,79.64
2018-06-03T08:07:43.610Z,79.55
2018-06-03T08:08:49.400Z,79.28
2018-06-03T08:09:54.120Z,78.83
2018-06-03T08:10:58.739Z,78.31
2018-06-03T08:12:03.257Z,77.62
2018-06-03T08:13:07.779Z,76.68
2018-06-03T08:14:12.834Z,75.86
2018-06-03T08:15:17.420Z,75.83
2018-06-03T08:16:22.095Z,75.72
2018-06-03T08:17:26.660Z,76.21
2018-06-03T08:18:31.224Z,76.05
2018-06-03T08:19:35.840Z,75.38
2018-06-03T08:20:40.745Z,75.05
2018-06-03T08:21:45.324Z,75.01
2018-06-03T08:22:49.990Z,75.46
2018-06-03T08:23:54.632Z,75.23
2018-06-03T08:24:59.234Z,75.31
2018-06-03T08:26:03.791Z,74.89
2018-06-03T08:27:09.031Z,74.62
2018-06-03T08:28:13.701Z,74.39
2018-06-03T08:29:18.298Z,74.15
2018-06-03T08:30:22.917Z,73.98
2018-06-03T08:31:28.016Z,73.48
2018-06-03T08:32:32.639Z,72.92
2018-06-03T08:33:37.639Z,71.74
2018-06-03T08:34:42.219Z,71.92
2018-06-03T08:35:46.812Z,71.68
2018-06-03T08:36:51.433Z,72.08
2018-06-03T08:37:56.097Z,72.27
2018-06-03T08:39:00.806Z,72.19
2018-06-03T08:40:05.822Z,71.59
2018-06-03T08:41:10.570Z,70.75
2018-06-03T08:42:15.262Z,70.41
2018-06-03T08:43:20.032Z,70.18
2018-06-03T08:44:24.739Z,70.39
2018-06-03T08:45:29.440Z,70.32
2018-06-03T08:46:34.450Z,70.19
2018-06-03T08:47:39.164Z,69.60
2018-06-03T08:48:43.905Z,69.71
2018-06-03T08:49:48.675Z,68.83
2018-06-03T08:50:53.448Z,68.77
2018-06-03T08:51:58.150Z,68.91
2018-06-03T08:53:03.199Z,68.73
2018-06-03T08:54:08.078Z,68.12
2018-06-03T08:55:12.839Z,67.87
2018-06-03T08:56:17.508Z,67.87
2018-06-03T08:57:22.224Z,67.56
2018-06-03T08:58:26.998Z,67.19
2018-06-03T08:59:32.320Z,66.97
2018-06-03T09:00:37.035Z,66.71
2018-06-03T09:01:41.777Z,66.82
2018-06-03T09:02:47.194Z,66.94
2018-06-03T09:03:51.949Z,67.03
2018-06-03T09:04:57.009Z,66.85
2018-06-03T09:06:02.073Z,66.73
2018-06-03T09:07:06.875Z,66.17
2018-06-03T09:08:11.680Z,65.56
2018-06-03T09:09:16.462Z,65.58
2018-06-03T09:10:21.196Z,65.45
2018-06-03T09:11:25.917Z,65.17
2018-06-03T09:12:30.989Z,65.15
2018-06-03T09:13:35.689Z,65.39
2018-06-03T09:14:40.448Z,65.59
2018-06-03T09:15:45.173Z,65.29
2018-06-03T09:16:50.028Z,65.09
2018-06-03T09:17:54.768Z,64.90
2018-06-03T09:19:00.049Z,64.77
2018-06-03T09:20:04.737Z,64.25
2018-06-03T09:21:09.455Z,63.89
2018-06-03T09:22:14.136Z,63.08
2018-06-03T09:23:18.837Z,62.29
2018-06-03T09:24:23.583Z,61.92
2018-06-03T09:25:28.858Z,61.52
2018-06-03T09:26:33.553Z,61.72
2018-06-03T09:27:38.245Z,61.64
2018-06-03T09:28:43.555Z,61.33
2018-06-03T09:29:48.501Z,61.38
2018-06-03T09:30:57.281Z,61.14
2018-06-03T09:32:01.998Z,60.39
2018-06-03T09:33:06.699Z,60.49
2018-06-03T09:34:11.433Z,60.64
2018-06-03T09:35:16.189Z,60.37
2018-06-03T09:36:20.920Z,60.00
2018-06-03T09:37:25.678Z,60.05
2018-06-03T09:38:30.862Z,59.97
2018-06-03T09:39:35.496Z,60.07
2018-06-03T09:40:41.027Z,59.52
2018-06-03T09:41:45.647Z,60.35
2018-06-03T09:42:50.633Z,60.40
2018-06-03T09:43:55.288Z,59.72
2018-06-03T09:45:00.011Z,59.37
2018-06-03T09:46:04.802Z,58.61
2018-06-03T09:47:09.462Z,58.32
2018-06-03T09:48:14.188Z,58.02
2018-06-03T09:49:19.222Z,57.92
2018-06-03T09:50:23.785Z,58.10
2018-06-03T09:51:28.445Z,58.62
2018-06-03T09:52:33.042Z,58.52
2018-06-03T09:53:37.575Z,58.79
2018-06-03T09:54:42.339Z,59.02
2018-06-03T09:55:47.038Z,59.03
2018-06-03T09:56:51.728Z,59.19
2018-06-03T09:57:56.385Z,59.20
2018-06-03T09:59:01.409Z,59.61
2018-06-03T10:00:06.151Z,59.18
2018-06-03T10:01:11.293Z,59.13
2018-06-03T10:02:15.989Z,59.31
2018-06-03T10:03:20.734Z,59.55
2018-06-03T10:04:25.852Z,59.41
2018-06-03T10:05:31.018Z,59.51
2018-06-03T10:06:35.996Z,60.18
2018-06-03T10:07:41.186Z,59.83
2018-06-03T10:08:45.871Z,60.08
2018-06-03T10:09:50.590Z,60.10
2018-06-03T10:10:56.025Z,59.71
2018-06-03T10:12:00.975Z,59.29
2018-06-03T10:13:05.729Z,58.96
2018-06-03T10:14:10.925Z,58.91
2018-06-03T10:15:15.620Z,58.45
2018-06-03T10:16:20.218Z,58.58
2018-06-03T10:17:24.908Z,58.10
2018-06-03T10:18:29.568Z,58.37
2018-06-03T10:19:34.155Z,58.38
2018-06-03T10:20:38.821Z,58.18
2018-06-03T10:21:43.447Z,58.26
2018-06-03T10:22:48.019Z,58.63
2018-06-03T10:23:52.689Z,58.59
2018-06-03T10:24:57.244Z,59.03
2018-06-03T10:26:01.787Z,58.91
2018-06-03T10:27:07.914Z,58.82
2018-06-03T10:28:12.539Z,58.50
2018-06-03T10:29:17.254Z,58.34
2018-06-03T10:30:21.934Z,58.02
2018-06-03T10:31:26.546Z,57.95
2018-06-03T10:32:31.221Z,58.05
2018-06-03T10:33:36.166Z,57.88
2018-06-03T10:34:40.828Z,58.33
2018-06-03T10:35:45.406Z,58.03
2018-06-03T10:36:50.035Z,57.45
2018-06-03T10:37:54.613Z,57.33
2018-06-03T10:38:59.239Z,56.97
2018-06-03T10:40:04.273Z,56.62
2018-06-03T10:41:08.843Z,55.96
2018-06-03T10:42:13.391Z,55.29
2018-06-03T10:43:17.943Z,54.99
2018-06-03T10:44:22.679Z,55.29
2018-06-03T10:45:27.384Z,56.13
2018-06-03T10:46:32.434Z,56.94
2018-06-03T10:47:37.134Z,57.46
2018-06-03T10:48:41.814Z,57.90
2018-06-03T10:49:46.475Z,57.91
2018-06-03T10:50:51.172Z,58.01
2018-06-03T10:51:55.891Z,58.29
2018-06-03T10:53:00.991Z,58.41
2018-06-03T10:54:05.843Z,58.45
2018-06-03T10:55:10.549Z,58.98
2018-06-03T10:56:15.293Z,59.63
2018-06-03T10:57:20.222Z,59.95
2018-06-03T10:58:24.906Z,59.88
2018-06-03T10:59:30.737Z,60.03
2018-06-03T11:00:35.492Z,60.04
2018-06-03T11:01:40.652Z,60.07
2018-06-03T11:02:45.335Z,59.76
2018-06-03T11:03:50.013Z,59.63
2018-06-03T11:04:54.783Z,59.37
2018-06-03T11:05:59.883Z,59.74
2018-06-03T11:07:05.205Z,59.76
2018-06-03T11:08:09.952Z,59.25
2018-06-03T11:09:14.678Z,58.71
2018-06-03T11:10:19.460Z,57.77
2018-06-03T11:11:24.327Z,57.20
2018-06-03T11:12:29.387Z,56.87
2018-06-03T11:13:34.157Z,56.80
2018-06-03T11:14:38.847Z,56.54
2018-06-03T11:15:43.566Z,56.96
2018-06-03T11:16:48.229Z,56.67
2018-06-03T11:17:52.915Z,56.29
2018-06-03T11:18:58.095Z,55.85
2018-06-03T11:20:02.792Z,55.67
2018-06-03T11:21:07.475Z,55.39
2018-06-03T11:22:12.215Z,55.09
2018-06-03T11:23:16.945Z,54.82
2018-06-03T11:24:21.707Z,54.50
2018-06-03T11:25:27.825Z,54.52
2018-06-03T11:26:32.547Z,54.20
2018-06-03T11:27:37.211Z,53.81
2018-06-03T11:28:41.914Z,53.62
2018-06-03T11:29:46.632Z,53.58
2018-06-03T11:30:51.418Z,53.54
2018-06-03T11:31:56.524Z,53.25
2018-06-03T11:33:01.230Z,53.27
2018-06-03T11:34:05.965Z,53.17
2018-06-03T11:35:10.667Z,52.98
2018-06-03T11:36:15.348Z,52.68
2018-06-03T11:37:20.067Z,52.39
2018-06-03T11:38:25.160Z,51.72
2018-06-03T11:39:29.805Z,51.85
2018-06-03T11:40:34.372Z,51.83
2018-06-03T11:41:38.934Z,51.89
2018-06-03T11:42:43.541Z,51.82
2018-06-03T11:43:48.224Z,51.44
2018-06-03T11:44:53.658Z,51.38
2018-06-03T11:45:58.281Z,51.00
2018-06-03T11:47:03.910Z,50.68
2018-06-03T11:48:08.535Z,50.48
2018-06-03T11:49:13.108Z,50.24
2018-06-03T11:50:17.684Z,49.78
2018-06-03T11:51:22.807Z,49.13
2018-06-03T11:52:27.619Z,48.69
2018-06-03T11:53:32.205Z,48.65
2018-06-03T11:54:36.858Z,48.82
2018-06-03T11:55:41.439Z,48.79
2018-06-03T11:56:51.622Z,48.93
2018-06-03T11:58:04.405Z,48.24
2018-06-03T11:59:13.059Z,48.13
2018-06-03T12:00:17.828Z,48.23
2018-06-03T12:01:22.856Z,48.47
2018-06-03T12:02:27.545Z,48.29
2018-06-03T12:03:32.754Z,48.15
2018-06-03T12:04:37.446Z,48.54
2018-06-03T12:05:42.234Z,49.16
2018-06-03T12:06:46.818Z,49.78
2018-06-03T12:07:51.426Z,49.40
2018-06-03T12:08:56.020Z,48.72
2018-06-03T12:10:00.985Z,49.58
2018-06-03T12:11:05.849Z,50.17
2018-06-03T12:12:10.501Z,51.52
2018-06-03T12:13:15.059Z,52.55
2018-06-03T12:14:19.757Z,52.02
2018-06-03T12:15:24.478Z,52.10
2018-06-03T12:16:29.490Z,51.92
2018-06-03T12:17:34.045Z,51.48
2018-06-03T12:18:38.838Z,51.02
2018-06-03T12:19:43.547Z,51.38
2018-06-03T12:20:48.306Z,51.19
2018-06-03T12:21:53.032Z,51.04
2018-06-03T12:22:58.144Z,50.73
2018-06-03T12:24:02.814Z,50.62
2018-06-03T12:25:07.534Z,50.21
2018-06-03T12:26:12.175Z,50.14
2018-06-03T12:27:16.889Z,50.59
2018-06-03T12:28:21.764Z,50.35
2018-06-03T12:29:26.430Z,49.60
2018-06-03T12:30:31.116Z,49.59
2018-06-03T12:31:35.784Z,49.52
2018-06-03T12:32:40.485Z,49.38
2018-06-03T12:33:45.196Z,49.38
2018-06-03T12:34:50.379Z,49.09
2018-06-03T12:35:55.241Z,48.84
2018-06-03T12:36:59.854Z,48.63
2018-06-03T12:38:04.433Z,48.20
2018-06-03T12:39:09.706Z,48.16
2018-06-03T12:40:14.383Z,47.90
2018-06-03T12:41:19.378Z,47.60
2018-06-03T12:42:23.945Z,47.17
2018-06-03T12:43:28.597Z,47.36
2018-06-03T12:44:33.297Z,47.32
2018-06-03T12:45:39.584Z,47.27
2018-06-03T12:46:44.968Z,47.42
2018-06-03T12:47:49.933Z,47.27
2018-06-03T12:48:54.573Z,48.49
2018-06-03T12:50:00.922Z,48.67
2018-06-03T12:51:05.838Z,48.80
2018-06-03T12:52:11.404Z,48.63
2018-06-03T12:53:17.558Z,48.61
2018-06-03T12:54:22.201Z,48.05
2018-06-03T12:55:26.818Z,47.77
2018-06-03T12:56:31.398Z,47.81
2018-06-03T12:57:35.952Z,48.01
2018-06-03T12:58:40.628Z,47.67
2018-06-03T12:59:45.759Z,47.40
2018-06-03T13:00:50.495Z,47.03
2018-06-03T13:01:55.080Z,46.76
2018-06-03T13:02:59.756Z,46.59
2018-06-03T13:04:40.327Z,46.65
2018-06-03T13:05:45.070Z,47.05
2018-06-03T13:06:50.066Z,46.52
2018-06-03T13:07:54.739Z,47.29
2018-06-03T13:08:59.374Z,47.35
2018-06-03T13:10:04.252Z,47.35
2018-06-03T13:11:08.884Z,47.18
2018-06-03T13:12:13.648Z,47.04
2018-06-03T13:13:18.553Z,46.29
2018-06-03T13:14:23.206Z,46.89
2018-06-03T13:15:27.826Z,46.43
2018-06-03T13:16:32.580Z,47.19
2018-06-03T13:17:37.175Z,46.79
2018-06-03T13:18:41.764Z,47.46
2018-06-03T13:19:46.811Z,48.05
2018-06-03T13:20:51.447Z,47.75
2018-06-03T13:21:56.038Z,48.01
2018-06-03T13:23:00.617Z,48.27
2018-06-03T13:24:05.867Z,48.14
2018-06-03T13:25:10.488Z,48.54
2018-06-03T13:26:15.503Z,48.80
2018-06-03T13:27:20.101Z,48.71
2018-06-03T13:28:24.681Z,48.89
2018-06-03T13:29:30.249Z,49.00
2018-06-03T13:30:34.987Z,48.77
2018-06-03T13:31:39.601Z,49.00
2018-06-03T13:32:44.715Z,49.52
2018-06-03T13:33:49.967Z,49.63
2018-06-03T13:34:54.484Z,49.45
2018-06-03T13:35:59.177Z,49.78
2018-06-03T13:37:03.817Z,49.56
2018-06-03T13:38:08.389Z,50.13
2018-06-03T13:39:13.378Z,49.63
2018-06-03T13:40:18.022Z,49.42
2018-06-03T13:41:22.635Z,50.35
2018-06-03T13:42:27.217Z,49.88
2018-06-03T13:43:33.087Z,49.88
2018-06-03T13:44:37.715Z,50.71
2018-06-03T13:45:42.670Z,49.92
2018-06-03T13:46:47.367Z,49.97
2018-06-03T13:47:52.026Z,49.64
2018-06-03T13:48:56.695Z,49.38
2018-06-03T13:50:01.395Z,48.77
2018-06-03T13:51:06.336Z,49.16
2018-06-03T13:52:10.942Z,49.23
2018-06-03T13:53:15.556Z,48.95
2018-06-03T13:54:20.212Z,49.11
2018-06-03T13:55:24.884Z,48.75